createdAt,value
2022-10-17T00:01:52.938Z,100869.00
2022-10-17T00:03:55.928Z,100857.47
2022-10-17T00:06:00.227Z,100869.00
2022-10-17T00:08:03.167Z,100862.78
2022-10-17T00:10:08.852Z,100868.94
2022-10-17T00:12:11.947Z,100862.78
2022-10-17T00:14:14.879Z,100864.47
2022-10-17T00:16:24.542Z,100867.63
2022-10-17T00:18:27.578Z,100869.44
2022-10-17T00:20:32.677Z,100864.41
2022-10-17T00:24:39.899Z,100864.84
2022-10-17T00:26:42.968Z,100865.53
2022-10-17T00:28:47.957Z,100862.50
2022-10-17T00:30:57.346Z,100859.31
2022-10-17T00:33:00.390Z,100865.94
2022-10-17T00:35:03.322Z,100872.56
2022-10-17T00:37:06.207Z,100864.91
2022-10-17T00:39:10.612Z,100871.75
2022-10-17T00:41:17.660Z,100862.31
2022-10-17T00:43:21.121Z,100867.94
2022-10-17T00:45:25.622Z,100861.19
2022-10-17T00:47:29.310Z,100863.78
2022-10-17T00:49:35.358Z,100870.44
2022-10-17T00:51:41.866Z,100867.34
2022-10-17T00:53:45.722Z,100865.13
2022-10-17T00:55:52.802Z,100868.91
2022-10-17T00:57:56.682Z,100865.66
2022-10-17T01:00:02.877Z,100852.03
2022-10-17T01:02:07.556Z,100853.50
2022-10-17T01:04:11.353Z,100852.56
2022-10-17T01:06:15.976Z,100849.69
2022-10-17T01:08:19.005Z,100839.66
2022-10-17T01:12:33.458Z,100839.97
2022-10-17T01:14:42.398Z,100839.97
2022-10-17T01:16:49.061Z,100837.22
2022-10-17T01:19:01.063Z,100844.25
2022-10-17T01:21:20.793Z,100833.44
2022-10-17T01:23:32.244Z,100828.88
2022-10-17T01:25:43.220Z,100831.53
2022-10-17T01:27:57.473Z,100827.91
2022-10-17T01:30:27.839Z,100831.59
2022-10-17T01:32:37.140Z,100829.72
2022-10-17T01:34:45.294Z,100824.28
2022-10-17T01:36:52.213Z,100825.06
2022-10-17T01:39:00.090Z,100822.28
2022-10-17T01:41:04.916Z,100817.06
2022-10-17T01:43:12.749Z,100815.34
2022-10-17T01:45:19.476Z,100814.50
2022-10-17T01:47:26.282Z,100822.28
2022-10-17T01:49:33.150Z,100820.50
2022-10-17T01:51:39.837Z,100809.84
2022-10-17T01:53:47.305Z,100812.22
2022-10-17T01:55:51.314Z,100809.84
2022-10-17T01:57:56.737Z,100811.38
2022-10-17T01:59:59.733Z,100806.88
2022-10-17T02:02:03.252Z,100799.56
2022-10-17T02:04:07.889Z,100796.88
2022-10-17T02:06:12.119Z,100794.22
2022-10-17T02:08:15.513Z,100792.78
2022-10-17T02:10:23.298Z,100796.31
2022-10-17T02:12:42.079Z,100799.75
2022-10-17T02:14:56.814Z,100795.38
2022-10-17T02:17:09.171Z,100786.59
2022-10-17T02:19:33.422Z,100790.03
2022-10-17T02:21:54.513Z,100793.66
2022-10-17T02:24:01.614Z,100804.31
2022-10-17T02:26:08.071Z,100794.22
2022-10-17T02:28:20.391Z,100803.78
2022-10-17T02:30:28.491Z,100793.97
2022-10-17T02:32:36.446Z,100787.56
2022-10-17T02:34:42.435Z,100776.72
2022-10-17T02:36:48.954Z,100778.09
2022-10-17T02:38:54.578Z,100775.34
2022-10-17T02:40:57.558Z,100778.78
2022-10-17T02:43:01.732Z,100785.75
2022-10-17T02:45:06.731Z,100778.41
2022-10-17T02:47:17.794Z,100772.00
2022-10-17T02:49:24.753Z,100775.44
2022-10-17T02:51:30.992Z,100777.16
2022-10-17T02:53:39.829Z,100781.25
2022-10-17T02:55:47.814Z,100774.88
2022-10-17T02:57:52.652Z,100763.81
2022-10-17T02:59:56.664Z,100769.81
2022-10-17T03:01:59.723Z,100757.06
2022-10-17T03:04:07.218Z,100749.72
2022-10-17T03:06:10.178Z,100748.13
2022-10-17T03:08:13.475Z,100759.53
2022-10-17T03:10:16.639Z,100755.31
2022-10-17T03:12:21.173Z,100755.03
2022-10-17T03:14:25.103Z,100756.06
2022-10-17T03:16:27.946Z,100760.03
2022-10-17T03:18:31.612Z,100753.72
2022-10-17T03:20:37.079Z,100754.75
2022-10-17T03:22:39.960Z,100757.50
2022-10-17T03:24:43.242Z,100761.91
2022-10-17T03:28:53.655Z,100765.72
2022-10-17T03:30:58.107Z,100757.72
2022-10-17T03:33:01.465Z,100760.84
2022-10-17T03:35:05.234Z,100765.34
2022-10-17T03:37:08.375Z,100761.25
2022-10-17T03:39:13.140Z,100775.47
2022-10-17T03:41:16.302Z,100767.34
2022-10-17T03:43:19.166Z,100769.94
2022-10-17T03:45:23.764Z,100772.03
2022-10-17T03:47:28.249Z,100779.84
2022-10-17T03:49:32.130Z,100780.91
2022-10-17T03:51:35.190Z,100783.63
2022-10-17T03:53:42.762Z,100774.50
2022-10-17T03:55:46.258Z,100767.47
2022-10-17T03:57:49.154Z,100767.47
2022-10-17T03:59:54.997Z,100780.91
2022-10-17T04:01:59.716Z,100781.72
2022-10-17T04:04:02.695Z,100787.06
2022-10-17T04:06:09.144Z,100781.72
2022-10-17T04:08:13.086Z,100788.91
2022-10-17T04:10:36.230Z,100774.69
2022-10-17T04:12:39.220Z,100783.72
2022-10-17T04:14:42.523Z,100785.94
2022-10-17T04:16:45.896Z,100782.41
2022-10-17T04:18:56.290Z,100782.22
2022-10-17T04:21:02.619Z,100778.13
2022-10-17T04:23:06.860Z,100786.91
2022-10-17T04:25:10.532Z,100777.72
2022-10-17T04:27:16.446Z,100782.13
2022-10-17T04:29:21.769Z,100776.81
2022-10-17T04:31:27.053Z,100783.75
2022-10-17T04:33:52.806Z,100784.63
2022-10-17T04:35:59.268Z,100776.59
2022-10-17T04:38:02.490Z,100780.31
2022-10-17T04:40:06.223Z,100773.94
2022-10-17T04:42:10.717Z,100772.13
2022-10-17T04:44:14.222Z,100777.38
2022-10-17T04:46:22.726Z,100771.84
2022-10-17T04:48:25.829Z,100772.88
2022-10-17T04:50:28.718Z,100776.03
2022-10-17T04:52:59.108Z,100764.19
2022-10-17T04:55:02.006Z,100783.84
2022-10-17T04:57:05.111Z,100771.91
2022-10-17T04:59:09.184Z,100780.66
2022-10-17T05:01:15.885Z,100778.56
2022-10-17T05:03:20.816Z,100784.00
2022-10-17T05:05:23.882Z,100775.63
2022-10-17T05:07:29.700Z,100780.75
2022-10-17T05:09:44.988Z,100766.44
2022-10-17T05:11:48.101Z,100773.53
2022-10-17T05:13:52.671Z,100771.19
2022-10-17T05:15:55.708Z,100769.41
2022-10-17T05:17:58.898Z,100768.53
2022-10-17T05:20:03.984Z,100779.13
2022-10-17T05:22:10.358Z,100778.91
2022-10-17T05:24:15.443Z,100772.72
2022-10-17T05:26:20.260Z,100775.22
2022-10-17T05:28:23.242Z,100768.13
2022-10-17T05:30:27.871Z,100769.69
2022-10-17T05:32:35.393Z,100779.66
2022-10-17T05:34:38.543Z,100779.59
2022-10-17T05:36:41.818Z,100784.94
2022-10-17T05:38:45.906Z,100784.13
2022-10-17T05:40:48.833Z,100781.34
2022-10-17T05:42:53.380Z,100785.41
2022-10-17T05:44:58.512Z,100788.19
2022-10-17T05:47:02.553Z,100779.31
2022-10-17T05:49:14.778Z,100786.16
2022-10-17T05:51:28.740Z,100782.66
2022-10-17T05:53:33.807Z,100790.75
2022-10-17T05:55:41.196Z,100779.31
2022-10-17T05:57:44.222Z,100786.38
2022-10-17T05:59:52.668Z,100793.34
2022-10-17T06:01:57.023Z,100786.38
2022-10-17T06:04:00.156Z,100800.59
2022-10-17T06:06:06.921Z,100800.28
2022-10-17T06:08:10.697Z,100802.84
2022-10-17T06:10:16.381Z,100812.72
2022-10-17T06:12:19.495Z,100810.66
2022-10-17T06:14:22.957Z,100824.22
2022-10-17T06:16:30.886Z,100809.94
2022-10-17T06:18:36.388Z,100814.97
2022-10-17T06:20:43.848Z,100807.72
2022-10-17T06:22:49.914Z,100816.50
2022-10-17T06:25:02.539Z,100812.84
2022-10-17T06:27:10.833Z,100818.97
2022-10-17T06:29:16.225Z,100819.63
2022-10-17T06:31:23.298Z,100831.06
2022-10-17T06:33:28.493Z,100819.75
2022-10-17T06:35:31.777Z,100820.22
2022-10-17T06:37:36.630Z,100831.78
2022-10-17T06:39:43.833Z,100828.91
2022-10-17T06:41:49.415Z,100833.31
2022-10-17T06:43:55.145Z,100826.03
2022-10-17T06:46:18.025Z,100835.75
2022-10-17T06:48:32.648Z,100843.78
2022-10-17T06:50:50.561Z,100852.16
2022-10-17T06:52:57.267Z,100850.25
2022-10-17T06:55:22.582Z,100842.22
2022-10-17T06:57:49.191Z,100847.34
2022-10-17T07:00:13.935Z,100836.38
2022-10-17T07:02:23.662Z,100840.84
2022-10-17T07:04:28.856Z,100840.63
2022-10-17T07:06:32.465Z,100825.25
2022-10-17T07:08:44.533Z,100842.81
2022-10-17T07:10:48.295Z,100826.56
2022-10-17T07:12:51.212Z,100825.13
2022-10-17T07:14:54.409Z,100835.19
2022-10-17T07:16:57.457Z,100837.13
2022-10-17T07:19:01.091Z,100849.13
2022-10-17T07:21:11.077Z,100845.41
2022-10-17T07:23:15.694Z,100840.38
2022-10-17T07:25:19.122Z,100842.94
2022-10-17T07:27:28.796Z,100843.28
2022-10-17T07:29:31.933Z,100844.88
2022-10-17T07:31:45.524Z,100859.88
2022-10-17T07:33:48.809Z,100865.66
2022-10-17T07:35:52.851Z,100848.50
2022-10-17T07:37:57.336Z,100856.03
2022-10-17T07:40:00.374Z,100847.25
2022-10-17T07:42:03.316Z,100844.91
2022-10-17T07:44:06.483Z,100848.94
2022-10-17T07:46:18.244Z,100851.47
2022-10-17T07:48:22.434Z,100853.88
2022-10-17T07:50:25.579Z,100856.50
2022-10-17T07:52:28.677Z,100855.34
2022-10-17T07:54:33.272Z,100853.00
2022-10-17T07:56:36.360Z,100840.25
2022-10-17T07:58:39.912Z,100847.66
2022-10-17T08:00:43.192Z,100849.22
2022-10-17T08:02:46.375Z,100849.59
2022-10-17T08:04:49.377Z,100849.66
2022-10-17T08:06:56.452Z,100851.09
2022-10-17T08:09:03.782Z,100853.31
2022-10-17T08:11:10.053Z,100852.56
2022-10-17T08:13:12.972Z,100852.91
2022-10-17T08:15:16.033Z,100852.78
2022-10-17T08:17:18.929Z,100854.66
2022-10-17T08:19:21.839Z,100846.72
2022-10-17T08:21:25.503Z,100859.53
2022-10-17T08:23:28.772Z,100858.00
2022-10-17T08:25:31.989Z,100853.06
2022-10-17T08:27:36.499Z,100852.03
2022-10-17T08:29:39.486Z,100855.72
2022-10-17T08:31:46.476Z,100848.44
2022-10-17T08:33:51.531Z,100855.09
2022-10-17T08:35:54.586Z,100855.66
2022-10-17T08:38:01.494Z,100857.06
2022-10-17T08:40:05.232Z,100853.31
2022-10-17T08:42:27.880Z,100860.22
2022-10-17T08:44:43.091Z,100847.69
2022-10-17T08:46:48.405Z,100849.25
2022-10-17T08:48:52.866Z,100853.19
2022-10-17T08:50:59.448Z,100847.66
2022-10-17T08:53:05.442Z,100861.47
2022-10-17T08:55:16.418Z,100865.78
2022-10-17T08:57:19.470Z,100873.81
2022-10-17T08:59:25.828Z,100860.88
2022-10-17T09:01:34.635Z,100861.84
2022-10-17T09:03:48.682Z,100874.78
2022-10-17T09:05:55.232Z,100861.00
2022-10-17T09:08:04.483Z,100864.75
2022-10-17T09:10:15.503Z,100861.00
2022-10-17T09:12:22.220Z,100854.56
2022-10-17T09:14:37.088Z,100865.16
2022-10-17T09:16:56.147Z,100863.69
2022-10-17T09:19:03.629Z,100855.34
2022-10-17T09:21:15.505Z,100865.31
2022-10-17T09:23:21.037Z,100866.19
2022-10-17T09:25:24.101Z,100865.63
2022-10-17T09:27:31.841Z,100870.50
2022-10-17T09:29:38.969Z,100864.75
2022-10-17T09:31:49.389Z,100873.97
2022-10-17T09:33:54.895Z,100873.19
2022-10-17T09:35:59.729Z,100881.13
2022-10-17T09:38:02.670Z,100885.31
2022-10-17T09:40:08.588Z,100878.44
2022-10-17T09:42:14.409Z,100884.84
2022-10-17T09:44:20.227Z,100889.59
2022-10-17T09:46:27.150Z,100892.75
2022-10-17T09:48:34.740Z,100894.03
2022-10-17T09:50:37.972Z,100898.63
2022-10-17T09:52:42.235Z,100886.06
2022-10-17T09:54:47.086Z,100891.44
2022-10-17T09:57:01.851Z,100891.66
2022-10-17T09:59:04.714Z,100903.63
2022-10-17T10:01:21.126Z,100894.81
2022-10-17T10:03:27.608Z,100899.66
2022-10-17T10:05:32.643Z,100904.44
2022-10-17T10:07:37.668Z,100896.59
2022-10-17T10:09:41.260Z,100902.91
2022-10-17T10:11:49.829Z,100912.19
2022-10-17T10:13:53.072Z,100918.31
2022-10-17T10:16:14.820Z,100919.31
2022-10-17T10:18:32.953Z,100933.19
2022-10-17T10:20:38.915Z,100929.91
2022-10-17T10:22:41.816Z,100934.22
2022-10-17T10:24:44.918Z,100946.31
2022-10-17T10:26:51.536Z,100966.03
2022-10-17T10:28:58.292Z,100955.53
2022-10-17T10:31:04.804Z,100957.72
2022-10-17T10:33:12.628Z,100964.34
2022-10-17T10:35:22.615Z,100969.19
2022-10-17T10:37:30.285Z,100970.56
2022-10-17T10:39:42.856Z,100965.63
2022-10-17T10:41:49.275Z,100979.66
2022-10-17T10:43:53.028Z,100975.75
2022-10-17T10:45:56.008Z,100985.31
2022-10-17T10:50:25.054Z,100976.84
2022-10-17T10:52:36.686Z,100990.31
2022-10-17T10:54:42.680Z,100993.84
2022-10-17T10:56:51.119Z,100998.59
2022-10-17T10:58:58.294Z,100996.03
2022-10-17T11:01:13.508Z,100981.63
2022-10-17T11:03:20.170Z,100990.69
2022-10-17T11:05:38.326Z,101002.66
2022-10-17T11:07:45.099Z,101006.06
2022-10-17T11:09:56.788Z,101003.38
2022-10-17T11:12:03.035Z,101007.97
2022-10-17T11:14:13.061Z,101010.97
2022-10-17T11:16:33.775Z,101022.41
2022-10-17T11:18:43.432Z,101020.22
2022-10-17T11:20:53.223Z,101019.28
2022-10-17T11:23:01.785Z,101031.34
2022-10-17T11:25:07.677Z,101031.72
2022-10-17T11:27:12.511Z,101046.16
2022-10-17T11:29:15.430Z,101054.94
2022-10-17T11:31:23.072Z,101049.81
2022-10-17T11:33:30.034Z,101058.00
2022-10-17T11:35:36.624Z,101046.66
2022-10-17T11:37:45.022Z,101059.00
2022-10-17T11:39:54.295Z,101058.25
2022-10-17T11:42:03.449Z,101063.25
2022-10-17T11:44:14.643Z,101055.78
2022-10-17T11:46:22.159Z,101053.72
2022-10-17T11:48:30.309Z,101042.22
2022-10-17T11:53:02.126Z,101044.41
2022-10-17T11:55:12.323Z,101046.88
2022-10-17T11:59:57.715Z,101050.31
2022-10-17T12:02:04.905Z,101037.47
2022-10-17T12:04:20.704Z,101037.97
2022-10-17T12:06:34.134Z,101036.00
2022-10-17T12:08:44.098Z,101020.97
2022-10-17T12:10:53.335Z,101019.78
2022-10-17T12:12:56.312Z,101014.16
2022-10-17T12:15:29.685Z,101025.47
2022-10-17T12:17:36.846Z,101024.66
2022-10-17T12:19:39.836Z,101040.41
2022-10-17T12:21:56.264Z,101032.41
2022-10-17T12:23:59.516Z,101035.63
2022-10-17T12:26:27.328Z,101031.97
2022-10-17T12:28:31.667Z,101032.41
2022-10-17T12:30:35.295Z,101024.97
2022-10-17T12:33:00.314Z,101028.03
2022-10-17T12:35:01.640Z,101043.19
2022-10-17T12:37:04.892Z,101045.34
2022-10-17T12:39:51.037Z,101045.47
2022-10-17T12:41:55.596Z,101055.38
2022-10-17T12:43:58.814Z,101056.28
2022-10-17T12:46:02.618Z,101060.44
2022-10-17T12:48:07.611Z,101061.88
2022-10-17T12:50:48.641Z,101070.34
2022-10-17T12:53:00.150Z,101058.13
2022-10-17T12:55:14.644Z,101071.44
2022-10-17T12:57:23.144Z,101057.28
2022-10-17T12:59:27.282Z,101065.47
2022-10-17T13:01:32.938Z,101065.56
2022-10-17T13:03:43.177Z,101058.38
2022-10-17T13:05:49.152Z,101053.47
2022-10-17T13:07:53.470Z,101064.44
2022-10-17T13:09:56.623Z,101064.22
2022-10-17T13:12:01.966Z,101067.66
2022-10-17T13:14:15.663Z,101070.34
2022-10-17T13:16:36.760Z,101071.31
2022-10-17T13:18:39.712Z,101066.88
2022-10-17T13:20:42.826Z,101071.16
2022-10-17T13:22:46.661Z,101067.38
2022-10-17T13:24:51.124Z,101074.25
2022-10-17T13:26:54.234Z,101072.63
2022-10-17T13:29:04.542Z,101083.00
2022-10-17T13:31:15.064Z,101091.56
2022-10-17T13:33:38.971Z,101093.97
2022-10-17T13:35:59.445Z,101093.00
2022-10-17T13:38:04.398Z,101106.63
2022-10-17T13:40:30.833Z,101110.34
2022-10-17T13:42:39.062Z,101113.88
2022-10-17T13:44:43.527Z,101108.69
2022-10-17T13:46:48.237Z,101114.22
2022-10-17T13:48:51.757Z,101119.72
2022-10-17T13:51:00.355Z,101129.47
2022-10-17T13:53:26.406Z,101129.34
2022-10-17T13:55:29.542Z,101126.34
2022-10-17T13:57:32.960Z,101137.94
2022-10-17T13:59:40.712Z,101140.84
2022-10-17T14:01:43.835Z,101146.47
2022-10-17T14:04:02.163Z,101145.31
2022-10-17T14:06:19.233Z,101147.25
2022-10-17T14:08:23.779Z,101149.13
2022-10-17T14:10:28.835Z,101157.19
2022-10-17T14:12:35.089Z,101146.81
2022-10-17T14:15:05.131Z,101149.50
2022-10-17T14:17:02.248Z,101153.69
2022-10-17T14:19:07.950Z,101149.84
2022-10-17T14:23:37.828Z,101159.47
2022-10-17T14:25:41.828Z,101162.94
2022-10-17T14:27:57.555Z,101150.25
2022-10-17T14:30:03.930Z,101166.25
2022-10-17T14:32:10.029Z,101160.59
2022-10-17T14:34:25.445Z,101168.34
2022-10-17T14:36:33.969Z,101173.06
2022-10-17T14:38:37.015Z,101168.75
2022-10-17T14:40:51.380Z,101170.59
2022-10-17T14:42:55.527Z,101174.69
2022-10-17T14:45:04.334Z,101164.78
2022-10-17T14:47:41.750Z,101167.03
2022-10-17T14:49:38.672Z,101178.09
2022-10-17T14:51:56.552Z,101181.88
2022-10-17T14:54:15.230Z,101184.97
2022-10-17T14:56:25.827Z,101182.50
2022-10-17T14:58:30.847Z,101180.25
2022-10-17T15:00:34.081Z,101189.06
2022-10-17T15:02:37.041Z,101186.47
2022-10-17T15:04:41.894Z,101188.09
2022-10-17T15:06:45.904Z,101201.00
2022-10-17T15:08:48.903Z,101206.38
2022-10-17T15:10:52.752Z,101211.91
2022-10-17T15:12:59.183Z,101211.91
2022-10-17T15:15:13.021Z,101222.66
2022-10-17T15:17:20.707Z,101228.78
2022-10-17T15:19:28.767Z,101231.03
2022-10-17T15:21:39.607Z,101239.41
2022-10-17T15:23:46.313Z,101232.66
2022-10-17T15:25:49.309Z,101241.22
2022-10-17T15:27:54.267Z,101247.66
2022-10-17T15:29:58.151Z,101254.22
2022-10-17T15:32:01.055Z,101256.34
2022-10-17T15:34:04.202Z,101249.50
2022-10-17T15:36:16.273Z,101261.16
2022-10-17T15:38:20.971Z,101255.22
2022-10-17T15:40:29.304Z,101257.09
2022-10-17T15:42:32.730Z,101256.56
2022-10-17T15:44:36.595Z,101254.50
2022-10-17T15:46:43.194Z,101257.00
2022-10-17T15:48:46.284Z,101256.03
2022-10-17T15:50:49.196Z,101256.34
2022-10-17T15:52:52.454Z,101254.59
2022-10-17T15:54:59.534Z,101268.13
2022-10-17T15:57:05.413Z,101266.34
2022-10-17T15:59:14.601Z,101273.72
2022-10-17T16:01:22.814Z,101281.75
2022-10-17T16:03:25.781Z,101291.41
2022-10-17T16:05:29.774Z,101301.25
2022-10-17T16:07:32.979Z,101306.28
2022-10-17T16:09:37.257Z,101311.75
2022-10-17T16:11:42.937Z,101314.75
2022-10-17T16:13:54.145Z,101318.56
2022-10-17T16:15:57.155Z,101336.56
2022-10-17T16:18:02.783Z,101336.00
2022-10-17T16:20:09.480Z,101344.06
2022-10-17T16:22:42.165Z,101347.59
2022-10-17T16:24:45.074Z,101360.75
2022-10-17T16:26:49.428Z,101364.66
2022-10-17T16:28:52.384Z,101370.81
2022-10-17T16:30:56.116Z,101374.63
2022-10-17T16:32:59.056Z,101390.81
2022-10-17T16:35:01.955Z,101393.59
2022-10-17T16:37:12.733Z,101391.03
2022-10-17T16:39:15.741Z,101410.00
2022-10-17T16:41:23.030Z,101417.84
2022-10-17T16:43:27.346Z,101420.06
2022-10-17T16:45:30.367Z,101420.41
2022-10-17T16:47:33.292Z,101429.75
2022-10-17T16:49:39.197Z,101417.31
2022-10-17T16:51:44.594Z,101426.75
2022-10-17T16:53:50.140Z,101437.13
2022-10-17T16:56:00.821Z,101435.06
2022-10-17T16:58:03.735Z,101439.06
2022-10-17T17:00:11.862Z,101445.22
2022-10-17T17:02:17.605Z,101443.75
2022-10-17T17:04:23.731Z,101444.88
2022-10-17T17:06:29.502Z,101442.47
2022-10-17T17:08:32.512Z,101446.03
2022-10-17T17:10:35.441Z,101447.72
2022-10-17T17:12:38.735Z,101457.22
2022-10-17T17:14:41.717Z,101459.19
2022-10-17T17:16:46.057Z,101458.59
2022-10-17T17:18:51.466Z,101460.16
2022-10-17T17:20:59.343Z,101459.09
2022-10-17T17:23:04.904Z,101456.19
2022-10-17T17:25:08.295Z,101454.22
2022-10-17T17:27:13.448Z,101446.97
2022-10-17T17:29:16.853Z,101441.03
2022-10-17T17:31:22.101Z,101432.91
2022-10-17T17:33:26.858Z,101442.63
2022-10-17T17:35:30.620Z,101457.38
2022-10-17T17:37:33.641Z,101462.72
2022-10-17T17:39:36.698Z,101461.19
2022-10-17T17:41:40.566Z,101468.66
2022-10-17T17:43:44.382Z,101478.84
2022-10-17T17:45:47.548Z,101483.75
2022-10-17T17:47:50.463Z,101482.03
2022-10-17T17:49:54.691Z,101484.53
2022-10-17T17:51:57.613Z,101492.78
2022-10-17T17:54:00.544Z,101498.13
2022-10-17T17:56:03.904Z,101492.59
2022-10-17T17:58:08.222Z,101488.75
2022-10-17T18:00:12.873Z,101492.97
2022-10-17T18:02:15.885Z,101493.53
2022-10-17T18:04:19.131Z,101499.25
2022-10-17T18:06:24.223Z,101508.53
2022-10-17T18:08:27.114Z,101510.97
2022-10-17T18:10:30.368Z,101503.81
2022-10-17T18:12:34.599Z,101500.69
2022-10-17T18:14:37.516Z,101513.03
2022-10-17T18:16:40.479Z,101510.13
2022-10-17T18:18:44.459Z,101513.63
2022-10-17T18:20:48.039Z,101518.81
2022-10-17T18:22:52.364Z,101512.00
2022-10-17T18:24:55.237Z,101512.72
2022-10-17T18:26:59.814Z,101514.41
2022-10-17T18:29:03.175Z,101524.41
2022-10-17T18:31:07.720Z,101522.34
2022-10-17T18:33:12.992Z,101525.03
2022-10-17T18:35:15.981Z,101518.13
2022-10-17T18:37:19.281Z,101518.69
2022-10-17T18:39:24.018Z,101525.59
2022-10-17T18:41:30.514Z,101533.38
2022-10-17T18:43:34.956Z,101521.66
2022-10-17T18:45:39.242Z,101528.84
2022-10-17T18:47:44.729Z,101530.47
2022-10-17T18:49:48.214Z,101533.13
2022-10-17T18:51:52.065Z,101536.50
2022-10-17T18:53:58.568Z,101542.84
2022-10-17T18:56:03.349Z,101544.78
2022-10-17T18:58:06.343Z,101544.69
2022-10-17T19:00:10.830Z,101552.19
2022-10-17T19:02:14.016Z,101552.19
2022-10-17T19:04:17.052Z,101554.91
2022-10-17T19:06:24.806Z,101560.09
2022-10-17T19:08:27.703Z,101553.28
2022-10-17T19:10:30.598Z,101552.56
2022-10-17T19:12:34.946Z,101554.91
2022-10-17T19:14:38.700Z,101556.91
2022-10-17T19:16:46.370Z,101564.84
2022-10-17T19:18:52.748Z,101563.97
2022-10-17T19:20:55.692Z,101563.16
2022-10-17T19:22:58.925Z,101563.34
2022-10-17T19:25:01.884Z,101567.22
2022-10-17T19:27:06.843Z,101568.81
2022-10-17T19:29:11.556Z,101571.69
2022-10-17T19:31:17.009Z,101570.84
2022-10-17T19:33:21.253Z,101571.69
2022-10-17T19:35:24.150Z,101566.44
2022-10-17T19:37:27.188Z,101560.72
2022-10-17T19:39:30.499Z,101563.47
2022-10-17T19:41:33.843Z,101561.44
2022-10-17T19:43:37.312Z,101570.84
2022-10-17T19:45:41.580Z,101577.91
2022-10-17T19:47:44.436Z,101567.53
2022-10-17T19:49:50.187Z,101575.47
2022-10-17T19:51:53.185Z,101569.59
2022-10-17T19:53:57.338Z,101565.63
2022-10-17T19:56:00.791Z,101571.78
2022-10-17T19:58:03.681Z,101576.19
2022-10-17T20:00:07.829Z,101575.16
2022-10-17T20:02:16.728Z,101578.06
2022-10-17T20:04:19.586Z,101579.78
2022-10-17T20:06:23.235Z,101581.81
2022-10-17T20:10:34.715Z,101579.50
2022-10-17T20:12:37.639Z,101581.16
2022-10-17T20:14:41.535Z,101589.63
2022-10-17T20:16:49.919Z,101597.63
2022-10-17T20:18:56.394Z,101592.94
2022-10-17T20:21:04.004Z,101598.47
2022-10-17T20:23:06.874Z,101598.63
2022-10-17T20:25:10.179Z,101594.81
2022-10-17T20:27:13.027Z,101596.59
2022-10-17T20:29:17.467Z,101603.88
2022-10-17T20:31:21.111Z,101602.16
2022-10-17T20:33:25.485Z,101600.56
2022-10-17T20:35:31.639Z,101591.94
2022-10-17T20:37:39.903Z,101586.78
2022-10-17T20:39:45.547Z,101587.53
2022-10-17T20:41:48.515Z,101585.41
2022-10-17T20:43:52.174Z,101582.44
2022-10-17T20:46:03.520Z,101589.66
2022-10-17T20:48:15.129Z,101582.44
2022-10-17T20:50:18.310Z,101591.22
2022-10-17T20:52:22.611Z,101583.31
2022-10-17T20:54:25.816Z,101590.13
2022-10-17T20:56:30.468Z,101591.13
2022-10-17T20:58:33.432Z,101591.41
2022-10-17T21:00:39.160Z,101593.28
2022-10-17T21:02:42.088Z,101586.06
2022-10-17T21:04:46.768Z,101587.06
2022-10-17T21:06:51.847Z,101588.38
2022-10-17T21:08:56.903Z,101597.16
2022-10-17T21:11:08.623Z,101590.13
2022-10-17T21:13:11.767Z,101592.56
2022-10-17T21:15:14.767Z,101591.69
2022-10-17T21:17:17.967Z,101599.41
2022-10-17T21:19:21.942Z,101599.41
2022-10-17T21:21:26.734Z,101606.63
2022-10-17T21:23:29.718Z,101598.75
2022-10-17T21:25:34.450Z,101607.84
2022-10-17T21:27:38.198Z,101606.22
2022-10-17T21:29:41.132Z,101610.50
2022-10-17T21:31:45.350Z,101617.63
2022-10-17T21:33:49.918Z,101610.41
2022-10-17T21:35:57.188Z,101620.88
2022-10-17T21:38:03.003Z,101618.28
2022-10-17T21:40:06.825Z,101627.31
2022-10-17T21:42:11.139Z,101618.50
2022-10-17T21:44:15.903Z,101619.56
2022-10-17T21:46:19.983Z,101618.00
2022-10-17T21:48:23.432Z,101616.91
2022-10-17T21:50:26.414Z,101620.66
2022-10-17T21:52:29.677Z,101618.06
2022-10-17T21:54:34.575Z,101626.66
2022-10-17T21:56:37.802Z,101628.53
2022-10-17T21:58:42.435Z,101629.31
2022-10-17T22:00:45.385Z,101628.53
2022-10-17T22:02:48.209Z,101638.25
2022-10-17T22:04:51.661Z,101627.44
2022-10-17T22:06:54.550Z,101639.84
2022-10-17T22:08:58.124Z,101641.56
2022-10-17T22:11:06.029Z,101636.94
2022-10-17T22:13:08.913Z,101641.56
2022-10-17T22:17:21.044Z,101645.41
2022-10-17T22:19:25.562Z,101645.75
2022-10-17T22:21:28.948Z,101643.66
2022-10-17T22:23:31.866Z,101647.50
2022-10-17T22:25:34.760Z,101645.59
2022-10-17T22:27:37.637Z,101650.06
2022-10-17T22:29:42.670Z,101654.59
2022-10-17T22:31:47.148Z,101653.16
2022-10-17T22:33:50.469Z,101657.97
2022-10-17T22:35:53.432Z,101660.72
2022-10-17T22:37:56.297Z,101652.03
2022-10-17T22:39:59.169Z,101656.78
2022-10-17T22:42:02.068Z,101658.44
2022-10-17T22:44:05.448Z,101655.13
2022-10-17T22:46:08.753Z,101654.31
2022-10-17T22:48:12.991Z,101658.72
2022-10-17T22:50:16.657Z,101650.84
2022-10-17T22:52:21.578Z,101654.53
2022-10-17T22:54:24.646Z,101651.94
2022-10-17T22:56:27.497Z,101659.78
2022-10-17T22:58:31.761Z,101659.97
2022-10-17T23:00:34.702Z,101657.06
2022-10-17T23:02:37.687Z,101658.03
2022-10-17T23:04:42.408Z,101652.84
2022-10-17T23:06:45.295Z,101649.53
2022-10-17T23:08:48.870Z,101655.81
2022-10-17T23:10:55.306Z,101653.41
2022-10-17T23:12:58.165Z,101644.75
2022-10-17T23:15:01.367Z,101646.59
2022-10-17T23:17:04.936Z,101640.41
2022-10-17T23:19:08.075Z,101651.94
2022-10-17T23:21:13.100Z,101648.94
2022-10-17T23:23:16.726Z,101654.13
2022-10-17T23:25:19.791Z,101653.16
2022-10-17T23:27:22.714Z,101653.22
2022-10-17T23:29:26.378Z,101648.81
2022-10-17T23:31:29.317Z,101653.06
2022-10-17T23:33:32.586Z,101658.34
2022-10-17T23:35:35.657Z,101648.59
2022-10-17T23:37:39.938Z,101656.47
2022-10-17T23:39:42.831Z,101663.59
2022-10-17T23:41:46.925Z,101666.19
2022-10-17T23:43:49.796Z,101663.53
2022-10-17T23:45:53.401Z,101669.66
2022-10-17T23:47:56.352Z,101671.25
2022-10-17T23:49:59.308Z,101665.94
2022-10-17T23:52:02.164Z,101663.28
2022-10-17T23:54:06.418Z,101664.91
2022-10-17T23:56:10.128Z,101662.38
2022-10-17T23:58:14.262Z,101659.88
